Time;durP1;ratioP1;P1;durP2;ratioP2;P2;SDS_P1;SDS_P2;PMS_P1;PMS_P2;Temp;Humidity;BMP_temperature;BMP_pressure;BME280_temperature;BME280_humidity;BME280_pressure;Samples;Min_cycle;Max_cycle;Signal;HPM_P1;HPM_P2
2022/12/21 06:19:57;;;;;;;;;;;;;;;;;;7320730;19;20020;-79
2022/12/21 06:22:22;;;;;;;;;;;;;;;;;;7356106;19;19968;-78
2022/12/21 06:24:47;;;;;;;;;;;;;;;;;;7355708;19;19918;-78
2022/12/21 06:27:12;;;;;;;;;;;;;;;;;;7365659;19;19937;-78
2022/12/21 06:29:37;;;;;;;;;;;;;;;;;;7364124;19;20340;-77
2022/12/21 06:32:03;;;;;;;;;;;;;;;;;;7369513;19;20344;-78
2022/12/21 06:34:28;;;;;;;;;;;;;;;;;;7367158;19;19921;-78
2022/12/21 06:36:53;;;;;;;;;;;;;;;;;;7365513;19;19922;-78
2022/12/21 06:39:18;;;;;;;;;;;;;;;;;;7361984;19;19946;-77
2022/12/21 06:41:43;;;;;;;;;;;;;;;;;;7362623;19;20582;-80
2022/12/21 06:44:08;;;;;;;;;;;;;;;;;;7367165;19;20006;-78
2022/12/21 06:46:34;;;;;;;;;;;;;;;;;;7365342;19;20317;-76
2022/12/21 06:48:59;;;;;;;;;;;;;;;;;;7363111;19;19922;-77
2022/12/21 06:51:24;;;;;;;;;;;;;;;;;;7331619;19;19931;-80
2022/12/21 06:53:49;;;;;;;;;;;;;;;;;;7357913;19;19932;-80
2022/12/21 06:56:14;;;;;;;;;;;;;;;;;;7344402;19;19925;-80
2022/12/21 06:58:39;;;;;;;;;;;;;;;;;;7359131;19;19907;-79
2022/12/21 07:01:04;;;;;;;;;;;;;;;;;;7361343;19;19926;-79
2022/12/21 07:03:30;;;;;;;;;;;;;;;;;;7367197;19;19956;-79
2022/12/21 07:05:55;;;;;;;;;;;;;;;;;;7361540;19;20307;-79
2022/12/21 07:08:21;;;;;;;;;;;;;;;;;;7355878;19;19923;-79
2022/12/21 07:10:47;;;;;;;;;;;;;;;;;;7348190;19;20337;-79
2022/12/21 07:13:12;;;;;;;;;;;;;;;;;;7361384;19;20308;-79
2022/12/21 07:15:37;;;;;;;;;;;;;;;;;;7343450;19;20245;-79
2022/12/21 07:18:02;;;;;;;;;;;;;;;;;;7352522;19;19915;-79
2022/12/21 07:20:27;;;;;;;;;;;;;;;;;;7363662;19;19934;-78
2022/12/21 07:22:52;;;;;;;;;;;;;;;;;;7369271;19;20331;-79
2022/12/21 07:25:17;;;;;;;;;;;;;;;;;;7371115;19;19929;-78
2022/12/21 07:27:42;;;;;;;;;;;;;;;;;;7368629;19;20392;-78
2022/12/21 07:30:07;;;;;;;;;;;;;;;;;;7373089;19;19929;-79
2022/12/21 07:32:32;;;;;;;;;;;;;;;;;;7374926;19;19947;-78
2022/12/21 07:34:58;;;;;;;;;;;;;;;;;;7372080;19;19926;-78
2022/12/21 07:37:23;;;;;;;;;;;;;;;;;;7365137;19;19942;-79
2022/12/21 07:39:48;;;;;;;;;;;;;;;;;;7365719;19;20319;-78
2022/12/21 07:42:13;;;;;;;;;;;;;;;;;;7375287;19;20344;-79
2022/12/21 07:44:41;;;;;;;;;;;;;;;;;;7371820;19;19914;-79
2022/12/21 07:47:06;;;;;;;;;;;;;;;;;;7368655;19;19979;-81
2022/12/21 07:49:31;;;;;;;;;;;;;;;;;;7375644;19;19982;-78
2022/12/21 07:51:56;;;;;;;;;;;;;;;;;;7372995;19;19915;-78
2022/12/21 07:54:23;;;;;;;;;;;;;;;;;;7374634;19;20327;-79
2022/12/21 07:56:48;;;;;;;;;;;;;;;;;;7369676;19;19918;-78
2022/12/21 07:59:13;;;;;;;;;;;;;;;;;;7375022;19;20013;-79
2022/12/21 08:01:38;;;;;;;;;;;;;;;;;;7369965;19;19946;-78
2022/12/21 08:04:03;;;;;;;;;;;;;;;;;;7375034;19;19921;-78
2022/12/21 08:06:28;;;;;;;;;;;;;;;;;;7368959;19;20211;-79
2022/12/21 08:08:53;;;;;;;;;;;;;;;;;;7372105;19;19938;-79
2022/12/21 08:11:19;;;;;;;;;;;;;;;;;;7370592;19;20048;-79
2022/12/21 08:13:44;;;;;;;;;;;;;;;;;;7373495;19;20606;-79
2022/12/21 08:16:09;;;;;;;;;;;;;;;;;;7375756;19;19958;-79
2022/12/21 08:18:34;;;;;;;;;;;;;;;;;;7374547;19;19919;-78
2022/12/21 08:20:59;;;;;;;;;;;;;;;;;;7365205;19;19963;-79
2022/12/21 08:23:24;;;;;;;;;;;;;;;;;;7373847;19;20360;-78
2022/12/21 08:25:49;;;;;;;;;;;;;;;;;;7368844;19;19926;-78
2022/12/21 08:28:14;;;;;;;;;;;;;;;;;;7369185;19;19923;-78
2022/12/21 08:30:40;;;;;;;;;;;;;;;;;;7373144;19;20015;-78
2022/12/21 08:33:05;;;;;;;;;;;;;;;;;;7373585;19;19923;-79
2022/12/21 08:35:30;;;;;;;;;;;;;;;;;;7370035;19;20416;-79
2022/12/21 08:37:55;;;;;;;;;;;;;;;;;;7370257;19;19915;-79
2022/12/21 08:40:20;;;;;;;;;;;;;;;;;;7371592;19;19926;-79
2022/12/21 08:42:46;;;;;;;;;;;;;;;;;;7374468;19;19994;-78
2022/12/21 08:45:12;;;;;;;;;;;;;;;;;;7373785;19;19919;-79
2022/12/21 08:47:37;;;;;;;;;;;;;;;;;;7375539;19;19923;-79
2022/12/21 08:50:02;;;;;;;;;;;;;;;;;;7370017;19;19986;-79
2022/12/21 08:52:27;;;;;;;;;;;;;;;;;;7370468;19;19927;-78
2022/12/21 08:54:53;;;;;;;;;;;;;;;;;;7366467;19;19930;-79
2022/12/21 08:57:18;;;;;;;;;;;;;;;;;;7372411;19;20426;-79
2022/12/21 08:59:43;;;;;;;;;;;;;;;;;;7369975;19;19947;-80
2022/12/21 09:02:08;;;;;;;;;;;;;;;;;;7374093;19;19921;-79
2022/12/21 09:04:33;;;;;;;;;;;;;;;;;;7369749;19;19915;-79
2022/12/21 09:06:58;;;;;;;;;;;;;;;;;;7370517;19;19954;-79
2022/12/21 09:09:23;;;;;;;;;;;;;;;;;;7372395;19;19939;-80
2022/12/21 09:11:48;;;;;;;;;;;;;;;;;;7356732;19;20930;-79
2022/12/21 09:14:14;;;;;;;;;;;;;;;;;;7370822;19;19947;-79
2022/12/21 09:16:40;;;;;;;;;;;;;;;;;;7368553;19;20312;-80
2022/12/21 09:19:05;;;;;;;;;;;;;;;;;;7371817;19;20345;-79
2022/12/21 09:21:30;;;;;;;;;;;;;;;;;;7372218;19;19919;-79
2022/12/21 09:23:56;;;;;;;;;;;;;;;;;;7368911;19;19921;-80
2022/12/21 09:26:21;;;;;;;;;;;;;;;;;;7370846;19;19926;-80
2022/12/21 09:28:46;;;;;;;;;;;;;;;;;;7372807;19;19911;-79
2022/12/21 09:31:11;;;;;;;;;;;;;;;;;;7376993;19;19923;-81
2022/12/21 09:33:36;;;;;;;;;;;;;;;;;;7365238;19;19923;-78
2022/12/21 09:36:02;;;;;;;;;;;;;;;;;;7367050;19;19943;-80
2022/12/21 09:38:27;;;;;;;;;;;;;;;;;;7376634;19;20442;-81
2022/12/21 09:40:52;;;;;;;;;;;;;;;;;;7368758;19;20394;-81
2022/12/21 09:43:17;;;;;;;;;;;;;;;;;;7374381;19;19918;-80
2022/12/21 09:45:42;;;;;;;;;;;;;;;;;;7375086;19;19978;-81
2022/12/21 09:48:07;;;;;;;;;;;;;;;;;;7371265;19;20383;-80
2022/12/21 09:50:32;;;;;;;;;;;;;;;;;;7371576;19;20319;-81
2022/12/21 09:52:58;;;;;;;;;;;;;;;;;;7375200;19;19923;-80
2022/12/21 09:55:23;;;;;;;;;;;;;;;;;;7372629;19;19915;-80
2022/12/21 09:57:48;;;;;;;;;;;;;;;;;;7377056;19;20324;-80
2022/12/21 10:00:13;;;;;;;;;;;;;;;;;;7378003;19;20116;-82
2022/12/21 10:02:38;;;;;;;;;;;;;;;;;;7376347;19;20024;-80
2022/12/21 10:05:03;;;;;;;;;;;;;;;;;;7372267;19;20310;-80
2022/12/21 10:07:29;;;;;;;;;;;;;;;;;;7376583;19;19915;-81
2022/12/21 10:09:54;;;;;;;;;;;;;;;;;;7371542;19;20424;-82
2022/12/21 10:12:19;;;;;;;;;;;;;;;;;;7374329;19;20305;-82
2022/12/21 10:14:44;;;;;;;;;;;;;;;;;;7376888;19;19914;-81
2022/12/21 10:17:09;;;;;;;;;;;;;;;;;;7372699;19;19922;-80
2022/12/21 10:19:34;;;;;;;;;;;;;;;;;;7372019;19;20358;-82
2022/12/21 10:21:59;;;;;;;;;;;;;;;;;;7369839;19;19979;-81
2022/12/21 10:24:25;;;;;;;;;;;;;;;;;;7374059;19;19915;-81
2022/12/21 10:26:50;;;;;;;;;;;;;;;;;;7371777;19;19915;-82
2022/12/21 10:29:15;;;;;;;;;;;;;;;;;;7375828;19;19922;-81
2022/12/21 10:31:40;;;;;;;;;;;;;;;;;;7376996;19;19953;-82
2022/12/21 10:34:06;;;;;;;;;;;;;;;;;;7371133;19;20496;-81
2022/12/21 10:36:31;;;;;;;;;;;;;;;;;;7374629;19;19914;-81
2022/12/21 10:38:56;;;;;;;;;;;;;;;;;;7373738;19;19955;-82
2022/12/21 10:41:21;;;;;;;;;;;;;;;;;;7374576;19;19911;-81
2022/12/21 10:43:48;;;;;;;;;;;;;;;;;;7380931;19;19926;-80
2022/12/21 10:46:13;;;;;;;;;;;;;;;;;;7380664;19;19946;-80
2022/12/21 10:48:38;;;;;;;;;;;;;;;;;;7373425;19;19951;-81
2022/12/21 10:51:03;;;;;;;;;;;;;;;;;;7372708;19;19959;-81
2022/12/21 10:53:28;;;;;;;;;;;;;;;;;;7380735;19;20349;-81
2022/12/21 10:55:53;;;;;;;;;;;;;;;;;;7375514;19;19922;-81
2022/12/21 10:58:18;;;;;;;;;;;;;;;;;;7378794;19;19918;-81
2022/12/21 11:00:43;;;;;;;;;;;;;;;;;;7376346;19;19945;-81
2022/12/21 11:03:09;;;;;;;;;;;;;;;;;;7375755;19;20269;-81
2022/12/21 11:05:34;;;;;;;;;;;;;;;;;;7375940;19;19911;-80
2022/12/21 11:07:59;;;;;;;;;;;;;;;;;;7378953;19;20307;-80
2022/12/21 11:10:24;;;;;;;;;;;;;;;;;;7376874;19;20271;-79
2022/12/21 11:12:50;;;;;;;;;;;;;;;;;;7376789;19;19929;-80
2022/12/21 11:15:15;;;;;;;;;;;;;;;;;;7376098;19;20316;-79
2022/12/21 11:17:40;;;;;;;;;;;;;;;;;;7374224;19;20326;-80
2022/12/21 11:20:06;;;;;;;;;;;;;;;;;;7370334;19;19926;-80
2022/12/21 11:22:31;;;;;;;;;;;;;;;;;;7378697;19;19994;-80
2022/12/21 11:24:56;;;;;;;;;;;;;;;;;;7374529;19;19919;-80
2022/12/21 11:27:21;;;;;;;;;;;;;;;;;;7377384;19;20369;-80
2022/12/21 11:29:47;;;;;;;;;;;;;;;;;;7374064;19;20309;-79
2022/12/21 11:32:12;;;;;;;;;;;;;;;;;;7376948;19;19942;-80
2022/12/21 11:34:37;;;;;;;;;;;;;;;;;;7376970;19;19968;-80
2022/12/21 11:37:02;;;;;;;;;;;;;;;;;;7373458;19;20072;-79
2022/12/21 11:39:27;;;;;;;;;;;;;;;;;;7373475;19;19991;-80
2022/12/21 11:41:52;;;;;;;;;;;;;;;;;;7370087;19;19926;-79
2022/12/21 11:44:18;;;;;;;;;;;;;;;;;;7374683;19;20356;-79
2022/12/21 11:46:43;;;;;;;;;;;;;;;;;;7357793;19;20055;-80
2022/12/21 11:49:08;;;;;;;;;;;;;;;;;;7360914;19;19911;-78
2022/12/21 11:51:33;;;;;;;;;;;;;;;;;;7369686;19;20604;-79
2022/12/21 11:53:58;;;;;;;;;;;;;;;;;;7370936;19;19918;-79
2022/12/21 11:56:23;;;;;;;;;;;;;;;;;;7367049;19;19978;-79
2022/12/21 11:58:48;;;;;;;;;;;;;;;;;;7373755;19;19919;-79
2022/12/21 12:01:13;;;;;;;;;;;;;;;;;;7370034;19;19971;-79
2022/12/21 12:03:38;;;;;;;;;;;;;;;;;;7373895;19;19923;-79
2022/12/21 12:06:03;;;;;;;;;;;;;;;;;;7364224;19;19953;-79
2022/12/21 12:08:29;;;;;;;;;;;;;;;;;;7372186;19;19915;-79
2022/12/21 12:10:54;;;;;;;;;;;;;;;;;;7369374;19;20422;-78
2022/12/21 12:13:19;;;;;;;;;;;;;;;;;;7372617;19;19929;-78
2022/12/21 12:15:44;;;;;;;;;;;;;;;;;;7372702;19;19925;-78
2022/12/21 12:18:09;;;;;;;;;;;;;;;;;;7351048;19;19943;-79
2022/12/21 12:20:34;;;;;;;;;;;;;;;;;;7374792;19;19919;-79
2022/12/21 12:22:59;;;;;;;;;;;;;;;;;;7364655;19;19915;-76
2022/12/21 12:25:24;;;;;;;;;;;;;;;;;;7366447;19;19919;-76
2022/12/21 12:27:49;;;;;;;;;;;;;;;;;;7373218;19;19919;-76
2022/12/21 12:30:15;;;;;;;;;;;;;;;;;;7373709;19;20327;-76
2022/12/21 12:32:40;;;;;;;;;;;;;;;;;;7373350;19;20008;-76
2022/12/21 12:35:05;;;;;;;;;;;;;;;;;;7366254;19;20003;-76
2022/12/21 12:37:31;;;;;;;;;;;;;;;;;;7367421;19;20346;-75
2022/12/21 12:39:56;;;;;;;;;;;;;;;;;;7354554;19;20408;-76
2022/12/21 12:42:22;;;;;;;;;;;;;;;;;;7364046;19;19922;-76
2022/12/21 12:44:47;;;;;;;;;;;;;;;;;;7371986;19;19943;-77
2022/12/21 12:47:12;;;;;;;;;;;;;;;;;;7365323;19;20351;-77
2022/12/21 12:49:37;;;;;;;;;;;;;;;;;;7370404;19;19919;-76
2022/12/21 12:52:02;;;;;;;;;;;;;;;;;;7368490;19;19918;-75
2022/12/21 12:54:27;;;;;;;;;;;;;;;;;;7369179;19;19956;-76
2022/12/21 12:56:52;;;;;;;;;;;;;;;;;;7363708;19;20026;-76
2022/12/21 12:59:17;;;;;;;;;;;;;;;;;;7370603;19;19965;-75
2022/12/21 13:01:43;;;;;;;;;;;;;;;;;;7370197;19;19978;-76
2022/12/21 13:04:08;;;;;;;;;;;;;;;;;;7365885;19;19939;-76
2022/12/21 13:06:33;;;;;;;;;;;;;;;;;;7362973;19;20175;-76
2022/12/21 13:08:58;;;;;;;;;;;;;;;;;;7368724;19;20237;-76
2022/12/21 13:11:23;;;;;;;;;;;;;;;;;;7358798;19;19975;-75
2022/12/21 13:13:49;;;;;;;;;;;;;;;;;;7366465;19;19925;-76
2022/12/21 13:16:14;;;;;;;;;;;;;;;;;;7364553;19;20013;-75
2022/12/21 13:18:39;;;;;;;;;;;;;;;;;;7369985;19;19915;-76
2022/12/21 13:21:04;;;;;;;;;;;;;;;;;;7365683;19;20008;-76
2022/12/21 13:23:29;;;;;;;;;;;;;;;;;;7368364;19;19978;-75
2022/12/21 13:25:54;;;;;;;;;;;;;;;;;;7365094;19;19915;-76
2022/12/21 13:28:20;;;;;;;;;;;;;;;;;;7369747;19;20610;-75
2022/12/21 13:30:45;;;;;;;;;;;;;;;;;;7370444;19;19939;-75
2022/12/21 13:33:10;;;;;;;;;;;;;;;;;;7368470;19;20278;-75
2022/12/21 13:35:35;;;;;;;;;;;;;;;;;;7366604;19;19943;-76
2022/12/21 13:38:00;;;;;;;;;;;;;;;;;;7370281;19;20037;-76
2022/12/21 13:40:25;;;;;;;;;;;;;;;;;;7364693;19;19942;-75
2022/12/21 13:42:50;;;;;;;;;;;;;;;;;;7364854;19;19915;-76
2022/12/21 13:45:16;;;;;;;;;;;;;;;;;;7367339;19;20892;-76
2022/12/21 13:47:41;;;;;;;;;;;;;;;;;;7359556;19;19939;-76
2022/12/21 13:50:06;;;;;;;;;;;;;;;;;;7363039;19;19922;-76
2022/12/21 13:52:31;;;;;;;;;;;;;;;;;;7372135;19;19947;-76
2022/12/21 13:54:56;;;;;;;;;;;;;;;;;;7364741;19;19989;-76
2022/12/21 13:57:21;;;;;;;;;;;;;;;;;;7370209;19;19915;-76
2022/12/21 13:59:46;;;;;;;;;;;;;;;;;;7369572;19;19923;-75
2022/12/21 14:02:12;;;;;;;;;;;;;;;;;;7365618;19;19975;-75
2022/12/21 14:04:37;;;;;;;;;;;;;;;;;;7365118;19;20364;-75
2022/12/21 14:07:02;;;;;;;;;;;;;;;;;;7364746;19;20290;-75
2022/12/21 14:09:27;;;;;;;;;;;;;;;;;;7369657;19;20025;-76
2022/12/21 14:11:52;;;;;;;;;;;;;;;;;;7346858;19;20539;-75
2022/12/21 14:14:17;;;;;;;;;;;;;;;;;;7361129;19;19923;-75
2022/12/21 14:16:42;;;;;;;;;;;;;;;;;;7367727;19;19926;-75
2022/12/21 14:19:07;;;;;;;;;;;;;;;;;;7361459;19;19919;-76
2022/12/21 14:21:33;;;;;;;;;;;;;;;;;;7367854;19;19922;-76
2022/12/21 14:23:58;;;;;;;;;;;;;;;;;;7363337;19;19914;-76
2022/12/21 14:26:23;;;;;;;;;;;;;;;;;;7359537;19;19933;-75
2022/12/21 14:28:48;;;;;;;;;;;;;;;;;;7366779;19;19933;-76
2022/12/21 14:31:13;;;;;;;;;;;;;;;;;;7366653;19;19926;-75
2022/12/21 14:33:38;;;;;;;;;;;;;;;;;;7366931;19;19922;-76
2022/12/21 14:36:03;;;;;;;;;;;;;;;;;;7365583;19;20017;-75
2022/12/21 14:38:28;;;;;;;;;;;;;;;;;;7368698;19;19950;-76
2022/12/21 14:40:53;;;;;;;;;;;;;;;;;;7363766;19;19923;-76
2022/12/21 14:43:19;;;;;;;;;;;;;;;;;;7360826;19;20040;-77
2022/12/21 14:45:44;;;;;;;;;;;;;;;;;;7366686;19;19967;-76
2022/12/21 14:48:09;;;;;;;;;;;;;;;;;;7363004;19;20292;-75
2022/12/21 14:50:34;;;;;;;;;;;;;;;;;;7361829;19;20471;-75
2022/12/21 14:52:59;;;;;;;;;;;;;;;;;;7361564;19;19999;-76
2022/12/21 14:55:24;;;;;;;;;;;;;;;;;;7356902;19;19915;-75
2022/12/21 14:57:49;;;;;;;;;;;;;;;;;;7363383;19;19979;-76
2022/12/21 15:00:15;;;;;;;;;;;;;;;;;;7364521;19;19954;-75
2022/12/21 15:02:40;;;;;;;;;;;;;;;;;;7365319;19;19944;-75
2022/12/21 15:05:05;;;;;;;;;;;;;;;;;;7363321;19;20250;-75
2022/12/21 15:07:30;;;;;;;;;;;;;;;;;;7366758;19;20323;-76
2022/12/21 15:09:55;;;;;;;;;;;;;;;;;;7363273;19;19922;-76
2022/12/21 15:12:20;;;;;;;;;;;;;;;;;;7365859;19;20372;-76
2022/12/21 15:14:46;;;;;;;;;;;;;;;;;;7368727;19;19907;-75
2022/12/21 15:17:11;;;;;;;;;;;;;;;;;;7366248;19;19918;-75
2022/12/21 15:19:36;;;;;;;;;;;;;;;;;;7363987;19;20284;-76
2022/12/21 15:22:01;;;;;;;;;;;;;;;;;;7365272;19;19998;-76
2022/12/21 15:24:26;;;;;;;;;;;;;;;;;;7368176;19;20363;-75
2022/12/21 15:26:52;;;;;;;;;;;;;;;;;;7364210;19;19944;-75
2022/12/21 15:29:17;;;;;;;;;;;;;;;;;;7363236;19;19971;-75
2022/12/21 15:31:42;;;;;;;;;;;;;;;;;;7366861;19;20001;-76
2022/12/21 15:34:07;;;;;;;;;;;;;;;;;;7363730;19;19930;-76
2022/12/21 15:36:32;;;;;;;;;;;;;;;;;;7365637;19;19918;-75
2022/12/21 15:38:57;;;;;;;;;;;;;;;;;;7371705;19;19922;-75
2022/12/21 15:41:22;;;;;;;;;;;;;;;;;;7365467;19;20208;-75
2022/12/21 15:43:47;;;;;;;;;;;;;;;;;;7375203;19;19929;-75
2022/12/21 15:46:13;;;;;;;;;;;;;;;;;;7372268;19;19954;-75
2022/12/21 15:48:38;;;;;;;;;;;;;;;;;;7368627;19;20022;-76
2022/12/21 15:51:03;;;;;;;;;;;;;;;;;;7369066;19;19955;-76
2022/12/21 15:53:30;;;;;;;;;;;;;;;;;;7373672;19;19945;-76
2022/12/21 15:55:55;;;;;;;;;;;;;;;;;;7370662;19;19929;-75
2022/12/21 15:58:20;;;;;;;;;;;;;;;;;;7369111;19;20316;-75
2022/12/21 16:00:45;;;;;;;;;;;;;;;;;;7369269;19;20058;-76
2022/12/21 16:03:11;;;;;;;;;;;;;;;;;;7367357;19;19933;-75
2022/12/21 16:05:36;;;;;;;;;;;;;;;;;;7372005;19;19943;-75
2022/12/21 16:08:01;;;;;;;;;;;;;;;;;;7369744;19;19935;-75
2022/12/21 16:10:26;;;;;;;;;;;;;;;;;;7364907;19;19968;-75
2022/12/21 16:12:51;;;;;;;;;;;;;;;;;;7365479;19;19910;-75
2022/12/21 16:15:16;;;;;;;;;;;;;;;;;;7360306;19;20675;-75
2022/12/21 16:17:41;;;;;;;;;;;;;;;;;;7371242;19;19933;-76
2022/12/21 16:20:08;;;;;;;;;;;;;;;;;;7352282;19;19954;-76
2022/12/21 16:22:33;;;;;;;;;;;;;;;;;;7360538;19;20288;-76
2022/12/21 16:24:58;;;;;;;;;;;;;;;;;;7364013;19;19922;-76
2022/12/21 16:27:23;;;;;;;;;;;;;;;;;;7369691;19;19926;-76
2022/12/21 16:29:48;;;;;;;;;;;;;;;;;;7371862;19;19946;-76
2022/12/21 16:32:13;;;;;;;;;;;;;;;;;;7369945;19;19929;-75
2022/12/21 16:34:39;;;;;;;;;;;;;;;;;;7371093;19;19931;-76
2022/12/21 16:37:04;;;;;;;;;;;;;;;;;;7371769;19;19922;-75
2022/12/21 16:39:29;;;;;;;;;;;;;;;;;;7368101;19;19915;-75
2022/12/21 16:41:55;;;;;;;;;;;;;;;;;;7368715;19;20047;-76
2022/12/21 16:44:20;;;;;;;;;;;;;;;;;;7371220;19;20266;-76
2022/12/21 16:46:46;;;;;;;;;;;;;;;;;;7372838;19;19923;-75
2022/12/21 16:49:11;;;;;;;;;;;;;;;;;;7366663;19;19918;-75
2022/12/21 16:51:36;;;;;;;;;;;;;;;;;;7370373;19;19915;-75
2022/12/21 16:54:01;;;;;;;;;;;;;;;;;;7371617;19;20209;-75
2022/12/21 16:56:28;;;;;;;;;;;;;;;;;;7365190;19;20081;-75
2022/12/21 16:58:53;;;;;;;;;;;;;;;;;;7372218;19;19918;-75
2022/12/21 17:01:18;;;;;;;;;;;;;;;;;;7366360;19;19946;-75
2022/12/21 17:03:43;;;;;;;;;;;;;;;;;;7369929;19;19918;-75
2022/12/21 17:06:08;;;;;;;;;;;;;;;;;;7359294;19;19982;-76
2022/12/21 17:08:33;;;;;;;;;;;;;;;;;;7345037;19;19982;-75
2022/12/21 17:10:59;;;;;;;;;;;;;;;;;;7368858;19;19977;-75
2022/12/21 17:13:24;;;;;;;;;;;;;;;;;;7366050;19;19939;-75
2022/12/21 17:15:49;;;;;;;;;;;;;;;;;;7370079;19;20230;-75
2022/12/21 17:18:14;;;;;;;;;;;;;;;;;;7355375;19;20646;-76
2022/12/21 17:20:39;;;;;;;;;;;;;;;;;;7364617;19;19935;-75
2022/12/21 17:23:04;;;;;;;;;;;;;;;;;;7356969;19;19935;-76
2022/12/21 17:25:29;;;;;;;;;;;;;;;;;;7339961;19;19922;-75
2022/12/21 17:27:54;;;;;;;;;;;;;;;;;;7336907;19;20234;-75
2022/12/21 17:30:19;;;;;;;;;;;;;;;;;;7360789;19;20268;-74
2022/12/21 17:32:45;;;;;;;;;;;;;;;;;;7370619;19;19951;-75
2022/12/21 17:35:10;;;;;;;;;;;;;;;;;;7360957;19;20242;-75
2022/12/21 17:37:35;;;;;;;;;;;;;;;;;;7367638;19;19922;-75
2022/12/21 17:40:00;;;;;;;;;;;;;;;;;;7365118;19;20641;-74
2022/12/21 17:42:25;;;;;;;;;;;;;;;;;;7362852;19;19915;-75
2022/12/21 17:44:50;;;;;;;;;;;;;;;;;;7332321;19;19934;-74
2022/12/21 17:47:16;;;;;;;;;;;;;;;;;;7348874;19;19930;-74
2022/12/21 17:49:41;;;;;;;;;;;;;;;;;;7349108;19;20229;-75
2022/12/21 17:52:06;;;;;;;;;;;;;;;;;;7360761;19;19914;-74
2022/12/21 17:54:31;;;;;;;;;;;;;;;;;;7355809;19;19982;-75
2022/12/21 17:56:56;;;;;;;;;;;;;;;;;;7357349;19;19919;-74
2022/12/21 17:59:21;;;;;;;;;;;;;;;;;;7364414;19;20399;-75
2022/12/21 18:01:46;;;;;;;;;;;;;;;;;;7360415;19;20294;-73
2022/12/21 18:04:12;;;;;;;;;;;;;;;;;;7361794;19;19930;-75
2022/12/21 18:06:37;;;;;;;;;;;;;;;;;;7368926;19;20317;-75
2022/12/21 18:09:04;;;;;;;;;;;;;;;;;;7361566;19;20292;-74
2022/12/21 18:11:29;;;;;;;;;;;;;;;;;;7351333;19;20497;-76
2022/12/21 18:13:54;;;;;;;;;;;;;;;;;;7362424;19;20024;-73
2022/12/21 18:16:19;;;;;;;;;;;;;;;;;;7361399;19;19922;-73
2022/12/21 18:18:44;;;;;;;;;;;;;;;;;;7357331;19;20288;-74
2022/12/21 18:21:09;;;;;;;;;;;;;;;;;;7365309;19;20020;-77
2022/12/21 18:23:35;;;;;;;;;;;;;;;;;;7364720;19;20026;-74
2022/12/21 18:26:00;;;;;;;;;;;;;;;;;;7354237;19;19966;-76
2022/12/21 18:28:25;;;;;;;;;;;;;;;;;;7354634;19;19954;-74
2022/12/21 18:30:50;;;;;;;;;;;;;;;;;;7358446;19;20015;-75
2022/12/21 18:33:15;;;;;;;;;;;;;;;;;;7358771;19;19914;-76
2022/12/21 18:35:40;;;;;;;;;;;;;;;;;;7364568;19;20232;-73
2022/12/21 18:38:05;;;;;;;;;;;;;;;;;;7365735;19;20477;-74
2022/12/21 18:40:30;;;;;;;;;;;;;;;;;;7356987;19;20004;-73
2022/12/21 18:42:56;;;;;;;;;;;;;;;;;;7367215;19;20011;-74
2022/12/21 18:45:21;;;;;;;;;;;;;;;;;;7356000;19;19939;-73
2022/12/21 18:47:46;;;;;;;;;;;;;;;;;;7366388;19;19976;-74
2022/12/21 18:50:11;;;;;;;;;;;;;;;;;;7357707;19;19919;-75
2022/12/21 18:52:36;;;;;;;;;;;;;;;;;;7365903;19;19939;-73
2022/12/21 18:55:01;;;;;;;;;;;;;;;;;;7363356;19;19929;-74
2022/12/21 18:57:26;;;;;;;;;;;;;;;;;;7354557;19;20213;-74
2022/12/21 18:59:51;;;;;;;;;;;;;;;;;;7364010;19;20329;-74
2022/12/21 19:02:16;;;;;;;;;;;;;;;;;;7347682;19;19933;-75
2022/12/21 19:04:42;;;;;;;;;;;;;;;;;;7362123;19;20356;-73
2022/12/21 19:07:08;;;;;;;;;;;;;;;;;;7364346;19;19931;-73
2022/12/21 19:09:33;;;;;;;;;;;;;;;;;;7358789;19;20361;-75
2022/12/21 19:11:58;;;;;;;;;;;;;;;;;;7346868;19;20030;-74
2022/12/21 19:14:23;;;;;;;;;;;;;;;;;;7371405;19;19918;-74
2022/12/21 19:16:49;;;;;;;;;;;;;;;;;;7364308;19;20328;-74
2022/12/21 19:19:14;;;;;;;;;;;;;;;;;;7355297;19;19922;-75
2022/12/21 19:21:39;;;;;;;;;;;;;;;;;;7365226;19;19926;-75
2022/12/21 19:24:05;;;;;;;;;;;;;;;;;;7369407;19;19975;-73
2022/12/21 19:26:31;;;;;;;;;;;;;;;;;;7358686;19;20367;-74
2022/12/21 19:28:57;;;;;;;;;;;;;;;;;;7373403;19;19921;-73
2022/12/21 19:31:22;;;;;;;;;;;;;;;;;;7360105;19;20002;-74
2022/12/21 19:33:47;;;;;;;;;;;;;;;;;;7375462;19;20193;-74
2022/12/21 19:36:12;;;;;;;;;;;;;;;;;;7371813;19;19926;-74
2022/12/21 19:38:37;;;;;;;;;;;;;;;;;;7373341;19;19919;-73
2022/12/21 19:41:02;;;;;;;;;;;;;;;;;;7362334;19;19930;-74
2022/12/21 19:43:27;;;;;;;;;;;;;;;;;;7340956;19;20288;-76
2022/12/21 19:45:52;;;;;;;;;;;;;;;;;;7370699;19;19918;-76
2022/12/21 19:48:17;;;;;;;;;;;;;;;;;;7360363;19;20624;-75
2022/12/21 19:50:43;;;;;;;;;;;;;;;;;;7365217;19;20319;-75
2022/12/21 19:53:08;;;;;;;;;;;;;;;;;;7373391;19;19919;-74
2022/12/21 19:55:33;;;;;;;;;;;;;;;;;;7365725;19;20345;-76
2022/12/21 19:57:59;;;;;;;;;;;;;;;;;;7372310;19;20371;-74
2022/12/21 20:00:24;;;;;;;;;;;;;;;;;;7369437;19;19919;-74
2022/12/21 20:02:50;;;;;;;;;;;;;;;;;;7351609;19;19918;-75
2022/12/21 20:05:16;;;;;;;;;;;;;;;;;;7359751;19;19922;-75
2022/12/21 20:07:41;;;;;;;;;;;;;;;;;;7346843;19;19907;-74
2022/12/21 20:10:06;;;;;;;;;;;;;;;;;;7343311;19;19929;-75
2022/12/21 20:12:31;;;;;;;;;;;;;;;;;;7357883;19;19921;-74
2022/12/21 20:14:56;;;;;;;;;;;;;;;;;;7370987;19;19919;-74
2022/12/21 20:17:21;;;;;;;;;;;;;;;;;;7365712;19;20196;-74
2022/12/21 20:19:46;;;;;;;;;;;;;;;;;;7360840;19;19918;-74
2022/12/21 20:22:12;;;;;;;;;;;;;;;;;;7366063;19;19914;-75
2022/12/21 20:24:37;;;;;;;;;;;;;;;;;;7361925;19;19922;-75
2022/12/21 20:27:02;;;;;;;;;;;;;;;;;;7368176;19;20332;-75
2022/12/21 20:29:27;;;;;;;;;;;;;;;;;;7367076;19;19918;-75
2022/12/21 20:31:53;;;;;;;;;;;;;;;;;;7357951;19;19990;-75
2022/12/21 20:34:18;;;;;;;;;;;;;;;;;;7366094;19;19914;-75
2022/12/21 20:36:43;;;;;;;;;;;;;;;;;;7360608;19;20247;-74
2022/12/21 20:39:08;;;;;;;;;;;;;;;;;;7369532;19;19947;-75
2022/12/21 20:44:17;;;;;;;;;;;;;;;;;;7364754;19;19917;-74
2022/12/21 20:46:42;;;;;;;;;;;;;;;;;;7366278;19;19915;-75
2022/12/21 20:49:07;;;;;;;;;;;;;;;;;;7362572;19;19910;-75
2022/12/21 20:51:32;;;;;;;;;;;;;;;;;;7364680;19;20369;-74
2022/12/21 20:53:57;;;;;;;;;;;;;;;;;;7368890;19;19922;-75
2022/12/21 20:56:34;;;;;;;;;;;;;;;;;;7363198;19;20020;-74
2022/12/21 20:58:59;;;;;;;;;;;;;;;;;;7369088;19;20433;-74
2022/12/21 21:01:24;;;;;;;;;;;;;;;;;;7360856;19;20332;-75
2022/12/21 21:03:49;;;;;;;;;;;;;;;;;;7358854;19;20561;-74
2022/12/21 21:06:14;;;;;;;;;;;;;;;;;;7362439;19;19930;-74
2022/12/21 21:08:39;;;;;;;;;;;;;;;;;;7364257;19;19933;-75
2022/12/21 21:13:48;;;;;;;;;;;;;;;;;;7335977;19;19914;-75
2022/12/21 21:16:13;;;;;;;;;;;;;;;;;;7365807;19;19918;-74
2022/12/21 21:18:38;;;;;;;;;;;;;;;;;;7353876;19;19927;-74
2022/12/21 21:23:47;;;;;;;;;;;;;;;;;;7360345;19;19921;-75
2022/12/21 21:26:12;;;;;;;;;;;;;;;;;;7353812;19;20046;-74
2022/12/21 21:28:37;;;;;;;;;;;;;;;;;;7363255;19;19954;-76
2022/12/21 21:31:02;;;;;;;;;;;;;;;;;;7361985;19;19919;-76
2022/12/21 21:33:28;;;;;;;;;;;;;;;;;;7359119;19;19982;-76
2022/12/21 21:35:53;;;;;;;;;;;;;;;;;;7358425;19;19929;-75
2022/12/21 21:43:46;;;;;;;;;;;;;;;;;;7361595;19;20471;-76
2022/12/21 21:46:11;;;;;;;;;;;;;;;;;;7358424;19;20317;-76
2022/12/21 21:48:36;;;;;;;;;;;;;;;;;;7361099;19;19915;-76
2022/12/21 21:51:01;;;;;;;;;;;;;;;;;;7362960;19;20306;-76
2022/12/21 21:53:26;;;;;;;;;;;;;;;;;;7341104;19;19926;-77
2022/12/21 21:55:51;;;;;;;;;;;;;;;;;;7345855;19;19937;-77
2022/12/21 21:58:17;;;;;;;;;;;;;;;;;;7363063;19;19946;-77
2022/12/21 22:00:42;;;;;;;;;;;;;;;;;;7359417;19;20030;-77
2022/12/21 22:03:07;;;;;;;;;;;;;;;;;;7344066;19;19922;-76
2022/12/21 22:05:33;;;;;;;;;;;;;;;;;;7359181;19;19970;-77
2022/12/21 22:07:58;;;;;;;;;;;;;;;;;;7367841;19;19981;-77
2022/12/21 22:10:33;;;;;;;;;;;;;;;;;;7349850;19;19926;-77
2022/12/21 22:12:58;;;;;;;;;;;;;;;;;;7362787;19;19929;-76
2022/12/21 22:15:23;;;;;;;;;;;;;;;;;;7361545;19;19930;-77
2022/12/21 22:17:48;;;;;;;;;;;;;;;;;;7363341;19;19915;-77
2022/12/21 22:33:53;;;;;;;;;;;;;;;;;;7357142;19;19913;-77
2022/12/21 22:44:30;;;;;;;;;;;;;;;;;;7360092;19;19952;-77
2022/12/21 22:46:55;;;;;;;;;;;;;;;;;;7369448;19;19918;-76
2022/12/21 22:49:20;;;;;;;;;;;;;;;;;;7368974;19;19919;-77
2022/12/21 22:51:45;;;;;;;;;;;;;;;;;;7369783;19;19931;-76
2022/12/21 22:54:10;;;;;;;;;;;;;;;;;;7372895;19;20304;-77
2022/12/21 22:56:35;;;;;;;;;;;;;;;;;;7366873;19;19955;-77
2022/12/21 22:59:00;;;;;;;;;;;;;;;;;;7372847;19;19941;-76
2022/12/21 23:01:25;;;;;;;;;;;;;;;;;;7318378;19;19918;-77
2022/12/21 23:03:50;;;;;;;;;;;;;;;;;;7348668;19;19923;-76
2022/12/21 23:06:15;;;;;;;;;;;;;;;;;;7339447;19;19979;-77
2022/12/21 23:08:41;;;;;;;;;;;;;;;;;;7361534;19;19911;-76
2022/12/21 23:11:06;;;;;;;;;;;;;;;;;;7357418;19;19939;-77
2022/12/21 23:16:15;;;;;;;;;;;;;;;;;;7374657;19;19930;-76
2022/12/21 23:18:40;;;;;;;;;;;;;;;;;;7349137;19;19923;-76
